createdAt,value
2018-03-29T00:00:09.139Z,50.7
2018-03-29T00:00:21.306Z,50.7
2018-03-29T00:00:33.446Z,50.7
2018-03-29T00:00:45.609Z,50.7
2018-03-29T00:00:57.780Z,50.7
2018-03-29T00:01:09.940Z,50.7
2018-03-29T00:01:22.081Z,50.7
2018-03-29T00:01:34.236Z,50.7
2018-03-29T00:01:46.412Z,50.7
2018-03-29T00:01:58.563Z,48.67
2018-03-29T00:02:10.731Z,48.67
2018-03-29T00:02:22.898Z,48.67
2018-03-29T00:02:35.067Z,48.67
2018-03-29T00:02:47.236Z,48.67
2018-03-29T00:02:59.391Z,48.67
2018-03-29T00:03:11.550Z,48.67
2018-03-29T00:03:23.705Z,48.67
2018-03-29T00:03:35.906Z,48.67
2018-03-29T00:03:48.322Z,48.67
2018-03-29T00:04:00.452Z,48.67
2018-03-29T00:04:12.608Z,48.67
2018-03-29T00:04:24.760Z,48.67
2018-03-29T00:04:36.953Z,48.67
2018-03-29T00:04:49.105Z,48.67
2018-03-29T00:05:01.290Z,48.67
2018-03-29T00:05:13.446Z,48.67
2018-03-29T00:05:25.584Z,48.67
2018-03-29T00:05:37.755Z,48.67
2018-03-29T00:05:49.904Z,48.67
2018-03-29T00:06:02.115Z,50.85
2018-03-29T00:06:14.327Z,50.85
2018-03-29T00:06:26.481Z,50.85
2018-03-29T00:06:38.658Z,50.85
2018-03-29T00:06:50.827Z,50.85
2018-03-29T00:07:02.985Z,50.85
2018-03-29T00:07:15.144Z,50.85
2018-03-29T00:07:27.328Z,50.85
2018-03-29T00:07:39.481Z,50.85
2018-03-29T00:07:51.650Z,50.85
2018-03-29T00:08:03.798Z,51.9
2018-03-29T00:08:15.945Z,51.9
2018-03-29T00:08:28.092Z,51.9
2018-03-29T00:08:40.290Z,51.9
2018-03-29T00:08:52.524Z,51.9
2018-03-29T00:09:04.685Z,51.9
2018-03-29T00:09:16.868Z,51.9
2018-03-29T00:09:29.054Z,51.9
2018-03-29T00:09:41.214Z,51.9
2018-03-29T00:09:53.384Z,51.9
2018-03-29T00:10:05.580Z,52.12
2018-03-29T00:10:17.773Z,52.12
2018-03-29T00:10:29.935Z,52.12
2018-03-29T00:10:42.086Z,52.12
2018-03-29T00:10:54.263Z,52.12
2018-03-29T00:11:06.468Z,52.12
2018-03-29T00:11:18.609Z,52.12
2018-03-29T00:11:30.809Z,52.12
2018-03-29T00:11:42.999Z,52.12
2018-03-29T00:11:55.149Z,53.45
2018-03-29T00:12:07.341Z,53.45
2018-03-29T00:12:19.484Z,53.45
2018-03-29T00:12:31.617Z,53.45
2018-03-29T00:12:43.777Z,53.45
2018-03-29T00:12:56.035Z,53.45
2018-03-29T00:13:08.233Z,53.45
2018-03-29T00:13:20.414Z,53.45
2018-03-29T00:13:32.584Z,53.45
2018-03-29T00:13:44.757Z,53.45
2018-03-29T00:13:56.894Z,53.32
2018-03-29T00:14:09.059Z,53.32
2018-03-29T00:14:21.210Z,53.32
2018-03-29T00:14:33.376Z,53.32
2018-03-29T00:14:45.516Z,53.32
2018-03-29T00:14:57.676Z,53.32
2018-03-29T00:15:09.834Z,53.32
2018-03-29T00:15:22.032Z,53.32
2018-03-29T00:15:34.175Z,53.32
2018-03-29T00:15:46.328Z,53.32
2018-03-29T00:15:58.462Z,53.85
2018-03-29T00:16:10.623Z,53.85
2018-03-29T00:16:22.783Z,53.85
2018-03-29T00:16:34.939Z,53.85
2018-03-29T00:16:47.082Z,53.85
2018-03-29T00:16:59.243Z,53.85
2018-03-29T00:17:11.412Z,53.85
2018-03-29T00:17:23.565Z,53.85
2018-03-29T00:17:35.750Z,53.85
2018-03-29T00:17:48.291Z,53.85
2018-03-29T00:18:00.627Z,52.27
2018-03-29T00:18:12.785Z,52.27
2018-03-29T00:18:24.950Z,52.27
2018-03-29T00:18:37.126Z,52.27
2018-03-29T00:18:49.276Z,52.27
2018-03-29T00:19:01.504Z,52.27
2018-03-29T00:19:13.666Z,52.27
2018-03-29T00:19:25.825Z,52.27
2018-03-29T00:19:37.980Z,52.27
2018-03-29T00:19:50.125Z,52.27
2018-03-29T00:20:02.280Z,50.73
2018-03-29T00:20:14.511Z,50.73
2018-03-29T00:20:26.671Z,50.73
2018-03-29T00:20:38.841Z,50.73
2018-03-29T00:20:51.004Z,50.73
2018-03-29T00:21:03.221Z,50.73
2018-03-29T00:21:15.391Z,50.73
2018-03-29T00:21:27.530Z,50.73
2018-03-29T00:21:39.667Z,50.73
2018-03-29T00:21:51.893Z,50.73
2018-03-29T00:22:04.065Z,52.69
2018-03-29T00:22:16.222Z,52.69
2018-03-29T00:22:28.382Z,52.69
2018-03-29T00:22:40.600Z,52.69
2018-03-29T00:22:52.765Z,52.69
2018-03-29T00:23:04.947Z,52.69
2018-03-29T00:23:17.103Z,52.69
2018-03-29T00:23:29.268Z,52.69
2018-03-29T00:23:41.405Z,52.69
2018-03-29T00:23:53.574Z,52.69
2018-03-29T00:24:05.743Z,54.53
2018-03-29T00:24:17.928Z,54.53
2018-03-29T00:24:30.123Z,54.53
2018-03-29T00:24:42.271Z,54.53
2018-03-29T00:24:54.463Z,54.53
2018-03-29T00:25:06.610Z,54.53
2018-03-29T00:25:18.814Z,54.53
2018-03-29T00:25:31.356Z,54.53
2018-03-29T00:25:43.537Z,54.53
2018-03-29T00:25:55.657Z,54.53
2018-03-29T00:26:07.817Z,54.53
2018-03-29T00:26:19.951Z,54.53
2018-03-29T00:26:32.251Z,54.53
2018-03-29T00:26:44.398Z,54.53
2018-03-29T00:26:56.551Z,54.53
2018-03-29T00:27:08.694Z,54.53
2018-03-29T00:27:20.897Z,54.53
2018-03-29T00:27:33.080Z,54.53
2018-03-29T00:27:45.236Z,54.53
2018-03-29T00:27:57.427Z,54.53
2018-03-29T00:28:09.636Z,52.22
2018-03-29T00:28:21.803Z,52.22
2018-03-29T00:28:33.958Z,52.22
2018-03-29T00:28:46.128Z,52.22
2018-03-29T00:28:58.296Z,52.22
2018-03-29T00:29:10.489Z,52.22
2018-03-29T00:29:22.661Z,52.22
2018-03-29T00:29:34.810Z,52.22
2018-03-29T00:29:47.000Z,52.22
2018-03-29T00:29:59.136Z,52.35
2018-03-29T00:30:11.300Z,52.35
2018-03-29T00:30:23.487Z,52.35
2018-03-29T00:30:35.685Z,52.35
2018-03-29T00:30:47.851Z,52.35
2018-03-29T00:31:00.057Z,52.35
2018-03-29T00:31:12.265Z,52.35
2018-03-29T00:31:24.405Z,52.35
2018-03-29T00:31:36.634Z,52.35
2018-03-29T00:31:48.832Z,52.35
2018-03-29T00:32:01.002Z,53.57
2018-03-29T00:32:13.198Z,53.57
2018-03-29T00:32:25.336Z,53.57
2018-03-29T00:32:37.534Z,53.57
2018-03-29T00:32:49.666Z,53.57
2018-03-29T00:33:01.837Z,53.57
2018-03-29T00:33:14.003Z,53.57
2018-03-29T00:33:26.162Z,53.57
2018-03-29T00:33:38.293Z,53.57
2018-03-29T00:33:50.454Z,53.57
2018-03-29T00:34:02.607Z,55.67
2018-03-29T00:34:14.885Z,55.67
2018-03-29T00:34:27.037Z,55.67
2018-03-29T00:34:39.165Z,55.67
2018-03-29T00:34:51.305Z,55.67
2018-03-29T00:35:03.489Z,55.67
2018-03-29T00:35:15.694Z,55.67
2018-03-29T00:35:27.844Z,55.67
2018-03-29T00:35:39.993Z,55.67
2018-03-29T00:35:52.138Z,55.67
2018-03-29T00:36:04.316Z,56.04
2018-03-29T00:36:16.452Z,56.04
2018-03-29T00:36:28.624Z,56.04
2018-03-29T00:36:40.788Z,56.04
2018-03-29T00:36:52.933Z,56.04
2018-03-29T00:37:05.079Z,56.04
2018-03-29T00:37:17.233Z,56.04
2018-03-29T00:37:29.407Z,56.04
2018-03-29T00:37:41.577Z,56.04
2018-03-29T00:37:53.717Z,56.04
2018-03-29T00:38:05.877Z,57.47
2018-03-29T00:38:18.044Z,57.47
2018-03-29T00:38:30.208Z,57.47
2018-03-29T00:38:42.357Z,57.47
2018-03-29T00:38:54.535Z,57.47
2018-03-29T00:39:06.672Z,57.47
2018-03-29T00:39:18.890Z,57.47
2018-03-29T00:39:31.068Z,57.47
2018-03-29T00:39:43.197Z,57.47
2018-03-29T00:39:55.349Z,57.47
2018-03-29T00:40:07.531Z,55.14
2018-03-29T00:40:19.671Z,55.14
2018-03-29T00:40:31.818Z,55.14
2018-03-29T00:40:43.993Z,55.14
2018-03-29T00:40:56.159Z,55.14
2018-03-29T00:41:08.297Z,55.14
2018-03-29T00:41:20.446Z,55.14
2018-03-29T00:41:32.639Z,55.14
2018-03-29T00:41:44.767Z,55.14
2018-03-29T00:41:56.935Z,55.14
2018-03-29T00:42:09.070Z,55.55
2018-03-29T00:42:21.212Z,55.55
2018-03-29T00:42:33.421Z,55.55
2018-03-29T00:42:45.588Z,55.55
2018-03-29T00:42:57.724Z,55.55
2018-03-29T00:43:09.875Z,55.55
2018-03-29T00:43:22.028Z,55.55
2018-03-29T00:43:34.173Z,55.55
2018-03-29T00:43:46.339Z,55.55
2018-03-29T00:43:58.627Z,55.55
2018-03-29T00:44:10.783Z,54.65
2018-03-29T00:44:22.961Z,54.65
2018-03-29T00:44:35.127Z,54.65
2018-03-29T00:44:47.285Z,54.65
2018-03-29T00:44:59.426Z,54.65
2018-03-29T00:45:11.578Z,54.65
2018-03-29T00:45:23.717Z,54.65
2018-03-29T00:45:35.873Z,54.65
2018-03-29T00:45:48.006Z,54.65
2018-03-29T00:46:00.144Z,54.65
2018-03-29T00:46:12.315Z,53.14
2018-03-29T00:46:24.445Z,53.14
2018-03-29T00:46:36.591Z,53.14
2018-03-29T00:46:48.735Z,53.14
2018-03-29T00:47:00.868Z,53.14
2018-03-29T00:47:13.151Z,53.14
2018-03-29T00:47:25.461Z,53.14
2018-03-29T00:47:37.604Z,53.14
2018-03-29T00:47:49.776Z,53.14
2018-03-29T00:48:02.088Z,53.14
2018-03-29T00:48:14.267Z,53.14
2018-03-29T00:48:26.425Z,53.14
2018-03-29T00:48:38.583Z,53.14
2018-03-29T00:48:50.759Z,53.14
2018-03-29T00:49:03.074Z,53.14
2018-03-29T00:49:15.233Z,53.14
2018-03-29T00:49:27.398Z,53.14
2018-03-29T00:49:39.972Z,53.14
2018-03-29T00:49:52.124Z,53.14
2018-03-29T00:50:04.275Z,53.72
2018-03-29T00:50:16.424Z,53.72
2018-03-29T00:50:28.561Z,53.72
2018-03-29T00:50:40.697Z,53.72
2018-03-29T00:50:52.878Z,53.72
2018-03-29T00:51:05.055Z,53.72
2018-03-29T00:51:17.208Z,53.72
2018-03-29T00:51:29.539Z,53.72
2018-03-29T00:51:41.710Z,53.72
2018-03-29T00:51:53.843Z,53.72
2018-03-29T00:52:05.980Z,49.45
2018-03-29T00:52:18.147Z,49.45
2018-03-29T00:52:30.292Z,49.45
2018-03-29T00:52:42.539Z,49.45
2018-03-29T00:52:54.701Z,49.45
2018-03-29T00:53:07.033Z,49.45
2018-03-29T00:53:19.191Z,49.45
2018-03-29T00:53:31.337Z,49.45
2018-03-29T00:53:43.489Z,49.45
2018-03-29T00:53:55.634Z,49.45
2018-03-29T00:54:07.795Z,49.98
2018-03-29T00:54:19.945Z,49.98
2018-03-29T00:54:32.185Z,49.98
2018-03-29T00:54:44.384Z,49.98
2018-03-29T00:54:56.526Z,49.98
2018-03-29T00:55:08.840Z,49.98
2018-03-29T00:55:20.989Z,49.98
2018-03-29T00:55:33.152Z,49.98
2018-03-29T00:55:45.306Z,49.98
2018-03-29T00:55:57.475Z,49.98
2018-03-29T00:56:09.628Z,53.52
2018-03-29T00:56:21.792Z,53.52
2018-03-29T00:56:33.951Z,53.52
2018-03-29T00:56:46.121Z,53.52
2018-03-29T00:56:58.269Z,53.52
2018-03-29T00:57:10.466Z,53.52
2018-03-29T00:57:22.721Z,53.52
2018-03-29T00:57:34.854Z,53.52
2018-03-29T00:57:47.011Z,53.52
2018-03-29T00:57:59.182Z,53.52
2018-03-29T00:58:11.321Z,50.73
2018-03-29T00:58:23.474Z,50.73
2018-03-29T00:58:35.629Z,50.73
2018-03-29T00:58:47.807Z,50.73
2018-03-29T00:58:59.963Z,50.73
2018-03-29T00:59:12.123Z,50.73
2018-03-29T00:59:24.266Z,50.73
2018-03-29T00:59:36.417Z,50.73
2018-03-29T00:59:48.547Z,50.73
2018-03-29T01:00:00.690Z,50.73
2018-03-29T01:00:12.906Z,50.73
2018-03-29T01:00:25.269Z,50.73
2018-03-29T01:00:37.394Z,50.73
2018-03-29T01:00:49.542Z,50.73
2018-03-29T01:01:01.715Z,50.73
2018-03-29T01:01:13.903Z,50.73
2018-03-29T01:01:26.115Z,50.73
2018-03-29T01:01:38.293Z,50.73
2018-03-29T01:01:50.506Z,50.73
2018-03-29T01:02:02.690Z,50.73
2018-03-29T01:02:14.849Z,49.78
2018-03-29T01:02:27.029Z,49.78
2018-03-29T01:02:39.197Z,49.78
2018-03-29T01:02:51.349Z,49.78
2018-03-29T01:03:03.511Z,49.78
2018-03-29T01:03:15.652Z,49.78
2018-03-29T01:03:27.859Z,49.78
2018-03-29T01:03:40.165Z,49.78
2018-03-29T01:03:52.483Z,49.78
2018-03-29T01:04:04.695Z,49.78
2018-03-29T01:04:16.869Z,50.48
2018-03-29T01:04:29.045Z,50.48
2018-03-29T01:04:41.215Z,50.48
2018-03-29T01:04:53.376Z,50.48
2018-03-29T01:05:05.561Z,50.48
2018-03-29T01:05:17.709Z,50.48
2018-03-29T01:05:29.854Z,50.48
2018-03-29T01:05:41.994Z,50.48
2018-03-29T01:05:54.142Z,50.48
2018-03-29T01:06:06.305Z,50.48
2018-03-29T01:06:18.440Z,46.72
2018-03-29T01:06:30.614Z,46.72
2018-03-29T01:06:42.845Z,46.72
2018-03-29T01:06:54.979Z,46.72
2018-03-29T01:07:07.141Z,46.72
2018-03-29T01:07:19.295Z,46.72
2018-03-29T01:07:31.502Z,46.72
2018-03-29T01:07:43.650Z,46.72
2018-03-29T01:07:55.909Z,46.72
2018-03-29T01:08:08.083Z,45.55
2018-03-29T01:08:20.230Z,45.55
2018-03-29T01:08:32.376Z,45.55
2018-03-29T01:08:44.514Z,45.55
2018-03-29T01:08:56.667Z,45.55
2018-03-29T01:09:08.860Z,45.55
2018-03-29T01:09:21.070Z,45.55
2018-03-29T01:09:33.238Z,45.55
2018-03-29T01:09:45.497Z,45.55
2018-03-29T01:09:57.658Z,45.55
2018-03-29T01:10:09.796Z,49.05
2018-03-29T01:10:21.927Z,49.05
2018-03-29T01:10:34.084Z,49.05
2018-03-29T01:10:46.251Z,49.05
2018-03-29T01:10:58.397Z,49.05
2018-03-29T01:11:10.587Z,49.05
2018-03-29T01:11:22.732Z,49.05
2018-03-29T01:11:34.907Z,49.05
2018-03-29T01:11:47.034Z,49.05
2018-03-29T01:11:59.269Z,49.05
2018-03-29T01:12:11.501Z,48.89
2018-03-29T01:12:23.654Z,48.89
2018-03-29T01:12:35.794Z,48.89
2018-03-29T01:12:47.943Z,48.89
2018-03-29T01:13:00.351Z,48.89
2018-03-29T01:13:12.517Z,48.89
2018-03-29T01:13:24.671Z,48.89
2018-03-29T01:13:36.850Z,48.89
2018-03-29T01:13:48.987Z,48.89
2018-03-29T01:14:01.136Z,48.89
2018-03-29T01:14:13.285Z,48.89
2018-03-29T01:14:25.444Z,48.89
2018-03-29T01:14:37.607Z,48.89
2018-03-29T01:14:49.758Z,48.89
2018-03-29T01:15:01.913Z,48.89
2018-03-29T01:15:14.055Z,48.89
2018-03-29T01:15:26.205Z,48.89
2018-03-29T01:15:38.323Z,48.89
2018-03-29T01:15:50.478Z,48.89
2018-03-29T01:16:02.625Z,48.89
2018-03-29T01:16:14.794Z,45.47
2018-03-29T01:16:26.947Z,45.47
2018-03-29T01:16:39.118Z,45.47
2018-03-29T01:16:51.278Z,45.47
2018-03-29T01:17:03.512Z,45.47
2018-03-29T01:17:15.647Z,45.47
2018-03-29T01:17:27.804Z,45.47
2018-03-29T01:17:39.965Z,45.47
2018-03-29T01:17:52.097Z,45.47
2018-03-29T01:18:04.659Z,45.47
2018-03-29T01:18:16.829Z,46.19
2018-03-29T01:18:28.996Z,46.19
2018-03-29T01:18:41.161Z,46.19
2018-03-29T01:18:53.308Z,46.19
2018-03-29T01:19:05.482Z,46.19
2018-03-29T01:19:17.622Z,46.19
2018-03-29T01:19:29.795Z,46.19
2018-03-29T01:19:41.957Z,46.19
2018-03-29T01:19:54.129Z,46.19
2018-03-29T01:20:06.320Z,46.19
2018-03-29T01:20:18.519Z,46.4
2018-03-29T01:20:30.680Z,46.4
2018-03-29T01:20:43.049Z,46.4
2018-03-29T01:20:55.194Z,46.4
2018-03-29T01:21:07.384Z,46.4
2018-03-29T01:21:19.542Z,46.4
2018-03-29T01:21:31.701Z,46.4
2018-03-29T01:21:43.866Z,46.4
2018-03-29T01:21:56.027Z,46.4
2018-03-29T01:22:08.172Z,46.4
2018-03-29T01:22:20.338Z,46.8
2018-03-29T01:22:32.487Z,46.8
2018-03-29T01:22:44.628Z,46.8
2018-03-29T01:22:56.843Z,46.8
2018-03-29T01:23:08.997Z,46.8
2018-03-29T01:23:21.159Z,46.8
2018-03-29T01:23:33.297Z,46.8
2018-03-29T01:23:45.497Z,46.8
2018-03-29T01:23:57.628Z,46.8
2018-03-29T01:24:09.843Z,46.53
2018-03-29T01:24:22.012Z,46.53
2018-03-29T01:24:34.171Z,46.53
2018-03-29T01:24:46.376Z,46.53
2018-03-29T01:24:58.574Z,46.53
2018-03-29T01:25:10.728Z,46.53
2018-03-29T01:25:22.887Z,46.53
2018-03-29T01:25:35.035Z,46.53
2018-03-29T01:25:47.252Z,46.53
2018-03-29T01:25:59.459Z,46.53
2018-03-29T01:26:11.599Z,47.9
2018-03-29T01:26:23.752Z,47.9
2018-03-29T01:26:36.128Z,47.9
2018-03-29T01:26:48.300Z,47.9
2018-03-29T01:27:00.483Z,47.9
2018-03-29T01:27:12.678Z,47.9
2018-03-29T01:27:24.812Z,47.9
2018-03-29T01:27:36.961Z,47.9
2018-03-29T01:27:49.115Z,47.9
2018-03-29T01:28:01.295Z,47.9
2018-03-29T01:28:13.428Z,46.48
2018-03-29T01:28:25.590Z,46.48
2018-03-29T01:28:37.722Z,46.48
2018-03-29T01:28:49.844Z,46.48
2018-03-29T01:29:02.003Z,46.48
2018-03-29T01:29:14.152Z,46.48
2018-03-29T01:29:26.326Z,46.48
2018-03-29T01:29:38.465Z,46.48
2018-03-29T01:29:50.613Z,46.48
2018-03-29T01:30:02.762Z,46.48
2018-03-29T01:30:14.910Z,47.34
2018-03-29T01:30:27.057Z,47.34
2018-03-29T01:30:39.216Z,47.34
2018-03-29T01:30:51.407Z,47.34
2018-03-29T01:31:03.582Z,47.34
2018-03-29T01:31:15.726Z,47.34
2018-03-29T01:31:27.940Z,47.34
2018-03-29T01:31:40.145Z,47.34
2018-03-29T01:31:52.286Z,47.34
2018-03-29T01:32:04.608Z,47.34
2018-03-29T01:32:16.788Z,47.34
2018-03-29T01:32:28.954Z,47.34
2018-03-29T01:32:41.121Z,46.85
2018-03-29T01:32:53.278Z,46.85
2018-03-29T01:33:05.451Z,46.85
2018-03-29T01:33:17.613Z,46.85
2018-03-29T01:33:29.765Z,46.85
2018-03-29T01:33:41.912Z,46.85
2018-03-29T01:33:54.066Z,46.85
2018-03-29T01:34:06.223Z,46.85
2018-03-29T01:34:18.392Z,46.85
2018-03-29T01:34:30.538Z,46.85
2018-03-29T01:34:42.669Z,47.39
2018-03-29T01:34:54.817Z,47.39
2018-03-29T01:35:06.976Z,47.39
2018-03-29T01:35:19.155Z,47.39
2018-03-29T01:35:31.311Z,47.39
2018-03-29T01:35:43.470Z,47.39
2018-03-29T01:35:55.618Z,47.39
2018-03-29T01:36:07.793Z,47.39
2018-03-29T01:36:19.951Z,47.39
2018-03-29T01:36:32.143Z,47.39
2018-03-29T01:36:44.333Z,47.39
2018-03-29T01:36:56.496Z,47.39
2018-03-29T01:37:08.706Z,47.39
2018-03-29T01:37:20.853Z,47.39
2018-03-29T01:37:33.003Z,47.39
2018-03-29T01:37:45.149Z,47.39
2018-03-29T01:37:57.297Z,47.39
2018-03-29T01:38:09.452Z,47.39
2018-03-29T01:38:21.623Z,47.39
2018-03-29T01:38:33.832Z,47.39
2018-03-29T01:38:45.977Z,49.97
2018-03-29T01:38:58.136Z,49.97
2018-03-29T01:39:10.326Z,49.97
2018-03-29T01:39:22.628Z,49.97
2018-03-29T01:39:34.765Z,49.97
2018-03-29T01:39:46.903Z,49.97
2018-03-29T01:39:59.049Z,49.97
2018-03-29T01:40:11.207Z,49.97
2018-03-29T01:40:23.344Z,49.97
2018-03-29T01:40:35.518Z,49.97
2018-03-29T01:40:47.712Z,50.07
2018-03-29T01:40:59.887Z,50.07
2018-03-29T01:41:12.076Z,50.07
2018-03-29T01:41:24.231Z,50.07
2018-03-29T01:41:36.388Z,50.07
2018-03-29T01:41:48.536Z,50.07
2018-03-29T01:42:00.783Z,50.07
2018-03-29T01:42:12.963Z,50.07
2018-03-29T01:42:25.114Z,50.07
2018-03-29T01:42:37.250Z,50.07
2018-03-29T01:42:49.399Z,49.52
2018-03-29T01:43:01.539Z,49.52
2018-03-29T01:43:13.711Z,49.52
2018-03-29T01:43:25.888Z,49.52
2018-03-29T01:43:38.041Z,49.52
2018-03-29T01:43:50.186Z,49.52
2018-03-29T01:44:02.336Z,49.52
2018-03-29T01:44:14.461Z,49.52
2018-03-29T01:44:26.611Z,49.52
2018-03-29T01:44:38.794Z,49.52
2018-03-29T01:44:50.962Z,48.25
2018-03-29T01:45:03.149Z,48.25
2018-03-29T01:45:15.300Z,48.25
2018-03-29T01:45:27.456Z,48.25
2018-03-29T01:45:39.613Z,48.25
2018-03-29T01:45:51.761Z,48.25
2018-03-29T01:46:03.935Z,48.25
2018-03-29T01:46:16.079Z,48.25
2018-03-29T01:46:28.236Z,48.25
2018-03-29T01:46:40.404Z,48.25
2018-03-29T01:46:52.571Z,48
2018-03-29T01:47:04.744Z,48
2018-03-29T01:47:16.912Z,48
2018-03-29T01:47:29.058Z,48
2018-03-29T01:47:41.198Z,48
2018-03-29T01:47:53.355Z,48
2018-03-29T01:48:05.670Z,48
2018-03-29T01:48:17.807Z,48
2018-03-29T01:48:29.968Z,48
2018-03-29T01:48:42.102Z,46.97
2018-03-29T01:48:54.391Z,46.97
2018-03-29T01:49:06.549Z,46.97
2018-03-29T01:49:18.706Z,46.97
2018-03-29T01:49:30.843Z,46.97
2018-03-29T01:49:42.991Z,46.97
2018-03-29T01:49:55.200Z,46.97
2018-03-29T01:50:07.374Z,46.97
2018-03-29T01:50:19.539Z,46.97
2018-03-29T01:50:31.713Z,46.97
2018-03-29T01:50:43.924Z,48.45
2018-03-29T01:50:56.077Z,48.45
2018-03-29T01:51:08.232Z,48.45
2018-03-29T01:51:20.437Z,48.45
2018-03-29T01:51:32.617Z,48.45
2018-03-29T01:51:44.809Z,48.45
2018-03-29T01:51:56.962Z,48.45
2018-03-29T01:52:09.165Z,48.45
2018-03-29T01:52:21.317Z,48.45
2018-03-29T01:52:33.486Z,48.45
2018-03-29T01:52:45.623Z,47.11
2018-03-29T01:52:57.775Z,47.11
2018-03-29T01:53:10.055Z,47.11
2018-03-29T01:53:22.272Z,47.11
2018-03-29T01:53:34.424Z,47.11
2018-03-29T01:53:46.597Z,47.11
2018-03-29T01:53:58.746Z,47.11
2018-03-29T01:54:10.908Z,47.11
2018-03-29T01:54:23.043Z,47.11
2018-03-29T01:54:35.175Z,47.11
2018-03-29T01:54:47.380Z,47.13
2018-03-29T01:54:59.867Z,47.13
2018-03-29T01:55:12.020Z,47.13
2018-03-29T01:55:24.161Z,47.13
2018-03-29T01:55:36.304Z,47.13
2018-03-29T01:55:48.536Z,47.13
2018-03-29T01:56:00.685Z,47.13
2018-03-29T01:56:12.819Z,47.13
2018-03-29T01:56:24.984Z,47.13
2018-03-29T01:56:37.131Z,47.13
2018-03-29T01:56:49.280Z,50.47
2018-03-29T01:57:01.454Z,50.47
2018-03-29T01:57:13.619Z,50.47
2018-03-29T01:57:25.785Z,50.47
2018-03-29T01:57:37.975Z,50.47
2018-03-29T01:57:50.132Z,50.47
2018-03-29T01:58:02.290Z,50.47
2018-03-29T01:58:14.448Z,50.47
2018-03-29T01:58:26.642Z,50.47
2018-03-29T01:58:38.791Z,50.47
2018-03-29T01:58:50.940Z,50.47
2018-03-29T01:59:03.088Z,50.47
2018-03-29T01:59:15.252Z,50.47
2018-03-29T01:59:27.430Z,50.47
2018-03-29T01:59:39.597Z,50.47
2018-03-29T01:59:51.804Z,50.47
2018-03-29T02:00:03.950Z,50.47
2018-03-29T02:00:16.139Z,50.47
2018-03-29T02:00:28.341Z,50.47
2018-03-29T02:00:40.494Z,50.47
2018-03-29T02:00:52.639Z,51.91
2018-03-29T02:01:05.074Z,51.91
2018-03-29T02:01:17.258Z,51.91
2018-03-29T02:01:29.440Z,51.91
2018-03-29T02:01:41.607Z,51.91
2018-03-29T02:01:53.761Z,51.91
2018-03-29T02:02:05.912Z,51.91
2018-03-29T02:02:18.069Z,51.91
2018-03-29T02:02:30.229Z,51.91
2018-03-29T02:02:42.409Z,51.91
2018-03-29T02:02:54.547Z,52.28
2018-03-29T02:03:06.715Z,52.28
2018-03-29T02:03:18.860Z,52.28
2018-03-29T02:03:31.008Z,52.28
2018-03-29T02:03:43.235Z,52.28
2018-03-29T02:03:55.520Z,52.28
2018-03-29T02:04:07.695Z,52.28
2018-03-29T02:04:19.844Z,52.28
2018-03-29T02:04:32.052Z,52.28
2018-03-29T02:04:44.270Z,49.68
2018-03-29T02:04:56.435Z,49.68
2018-03-29T02:05:08.586Z,49.68
2018-03-29T02:05:20.739Z,49.68
2018-03-29T02:05:32.920Z,49.68
2018-03-29T02:05:45.066Z,49.68
2018-03-29T02:05:57.281Z,49.68
2018-03-29T02:06:09.461Z,49.68
2018-03-29T02:06:21.611Z,49.68
2018-03-29T02:06:33.756Z,49.68
2018-03-29T02:06:45.902Z,48.55
2018-03-29T02:06:58.079Z,48.55
2018-03-29T02:07:10.263Z,48.55
2018-03-29T02:07:22.477Z,48.55
2018-03-29T02:07:34.617Z,48.55
2018-03-29T02:07:47.003Z,48.55
2018-03-29T02:07:59.261Z,48.55
2018-03-29T02:08:11.461Z,48.55
2018-03-29T02:08:23.615Z,48.55
2018-03-29T02:08:35.747Z,48.55
2018-03-29T02:08:47.952Z,49.61
2018-03-29T02:09:00.110Z,49.61
2018-03-29T02:09:12.253Z,49.61
2018-03-29T02:09:24.436Z,49.61
2018-03-29T02:09:36.653Z,49.61
2018-03-29T02:09:48.801Z,49.61
2018-03-29T02:10:00.940Z,49.61
2018-03-29T02:10:13.126Z,49.61
2018-03-29T02:10:25.322Z,49.61
2018-03-29T02:10:37.477Z,49.61
2018-03-29T02:10:49.642Z,50.85
2018-03-29T02:11:01.779Z,50.85
2018-03-29T02:11:13.940Z,50.85
2018-03-29T02:11:26.096Z,50.85
2018-03-29T02:11:38.292Z,50.85
2018-03-29T02:11:50.456Z,50.85
2018-03-29T02:12:02.614Z,50.85
2018-03-29T02:12:14.772Z,50.85
2018-03-29T02:12:26.917Z,50.85
2018-03-29T02:12:39.065Z,50.85
2018-03-29T02:12:51.271Z,50.48
2018-03-29T02:13:03.565Z,50.48
2018-03-29T02:13:15.691Z,50.48
2018-03-29T02:13:27.847Z,50.48
2018-03-29T02:13:40.010Z,50.48
2018-03-29T02:13:52.143Z,50.48
2018-03-29T02:14:04.323Z,50.48
2018-03-29T02:14:16.499Z,50.48
2018-03-29T02:14:28.660Z,50.48
2018-03-29T02:14:40.805Z,50.48
2018-03-29T02:14:52.968Z,52.31
2018-03-29T02:15:05.117Z,52.31
2018-03-29T02:15:17.282Z,52.31
2018-03-29T02:15:29.445Z,52.31
2018-03-29T02:15:41.587Z,52.31
2018-03-29T02:15:53.727Z,52.31
2018-03-29T02:16:05.856Z,52.31
2018-03-29T02:16:18.011Z,52.31
2018-03-29T02:16:30.194Z,52.31
2018-03-29T02:16:42.357Z,52.31
2018-03-29T02:16:54.520Z,53.48
2018-03-29T02:17:06.686Z,53.48
2018-03-29T02:17:18.896Z,53.48
2018-03-29T02:17:31.051Z,53.48
2018-03-29T02:17:43.224Z,53.48
2018-03-29T02:17:55.836Z,53.48
2018-03-29T02:18:07.982Z,53.48
2018-03-29T02:18:20.147Z,53.48
2018-03-29T02:18:32.365Z,53.48
2018-03-29T02:18:44.539Z,53.48
2018-03-29T02:18:56.666Z,51.7
2018-03-29T02:19:08.834Z,51.7
2018-03-29T02:19:20.972Z,51.7
2018-03-29T02:19:33.113Z,51.7
2018-03-29T02:19:45.270Z,51.7
2018-03-29T02:19:57.430Z,51.7
2018-03-29T02:20:09.573Z,51.7
2018-03-29T02:20:21.749Z,51.7
2018-03-29T02:20:33.918Z,51.7
2018-03-29T02:20:46.085Z,51.7
2018-03-29T02:20:58.244Z,51.7
2018-03-29T02:21:10.395Z,51.7
2018-03-29T02:21:22.558Z,51.7
2018-03-29T02:21:34.688Z,51.7
2018-03-29T02:21:46.837Z,51.7
2018-03-29T02:21:58.984Z,51.7
2018-03-29T02:22:11.137Z,51.7
2018-03-29T02:22:23.321Z,51.7
2018-03-29T02:22:35.481Z,51.7
2018-03-29T02:22:47.685Z,53.66
2018-03-29T02:22:59.974Z,53.66
2018-03-29T02:23:12.210Z,53.66
2018-03-29T02:23:24.386Z,53.66
2018-03-29T02:23:36.542Z,53.66
2018-03-29T02:23:48.697Z,53.66
2018-03-29T02:24:00.856Z,53.66
2018-03-29T02:24:13.012Z,53.66
2018-03-29T02:24:25.229Z,53.66
2018-03-29T02:24:37.421Z,53.66
2018-03-29T02:24:49.556Z,56.77
2018-03-29T02:25:01.801Z,56.77
2018-03-29T02:25:14.047Z,56.77
2018-03-29T02:25:26.251Z,56.77
2018-03-29T02:25:38.403Z,56.77
2018-03-29T02:25:50.569Z,56.77
2018-03-29T02:26:02.709Z,56.77
2018-03-29T02:26:14.926Z,56.77
2018-03-29T02:26:27.089Z,56.77
2018-03-29T02:26:39.357Z,56.77
2018-03-29T02:26:51.513Z,54.3
2018-03-29T02:27:03.665Z,54.3
2018-03-29T02:27:16.134Z,54.3
2018-03-29T02:27:28.300Z,54.3
2018-03-29T02:27:40.498Z,54.3
2018-03-29T02:27:52.640Z,54.3
2018-03-29T02:28:04.779Z,54.3
2018-03-29T02:28:16.929Z,54.3
2018-03-29T02:28:29.124Z,54.3
2018-03-29T02:28:41.276Z,54.3
2018-03-29T02:28:53.421Z,52.5
2018-03-29T02:29:05.570Z,52.5
2018-03-29T02:29:17.734Z,52.5
2018-03-29T02:29:29.893Z,52.5
2018-03-29T02:29:42.053Z,52.5
2018-03-29T02:29:54.202Z,52.5
2018-03-29T02:30:06.383Z,52.5
2018-03-29T02:30:18.578Z,52.5
2018-03-29T02:30:30.740Z,52.5
2018-03-29T02:30:42.907Z,52.5
2018-03-29T02:30:55.074Z,55.28
2018-03-29T02:31:07.231Z,55.28
2018-03-29T02:31:19.455Z,55.28
2018-03-29T02:31:31.713Z,55.28
2018-03-29T02:31:43.898Z,55.28
2018-03-29T02:31:56.078Z,55.28
2018-03-29T02:32:08.325Z,55.28
2018-03-29T02:32:20.504Z,55.28
2018-03-29T02:32:32.678Z,55.28
2018-03-29T02:32:44.965Z,55.28
2018-03-29T02:32:57.194Z,57.63
2018-03-29T02:33:09.449Z,57.63
2018-03-29T02:33:21.645Z,57.63
2018-03-29T02:33:33.836Z,57.63
2018-03-29T02:33:46.015Z,57.63
2018-03-29T02:33:58.206Z,57.63
2018-03-29T02:34:10.375Z,57.63
2018-03-29T02:34:22.583Z,57.63
2018-03-29T02:34:34.743Z,57.63
2018-03-29T02:34:46.968Z,57.63
2018-03-29T02:34:59.145Z,64.48
2018-03-29T02:35:11.341Z,64.48
2018-03-29T02:35:23.594Z,64.48
2018-03-29T02:35:35.769Z,64.48
2018-03-29T02:35:47.990Z,64.48
2018-03-29T02:36:00.239Z,64.48
2018-03-29T02:36:12.419Z,64.48
2018-03-29T02:36:24.618Z,64.48
2018-03-29T02:36:36.829Z,64.48
2018-03-29T02:36:49.023Z,64.48
2018-03-29T02:37:01.228Z,68.05
2018-03-29T02:37:13.400Z,68.05
2018-03-29T02:37:25.590Z,68.05
2018-03-29T02:37:37.800Z,68.05